Jsp Skirner — V2CB9 — position and weather

sailwx.info

Track history (hours):
 
Tides and Currents Weather Stations Pressure Air Temp Water Temp Dewpoint Dewpoint Depression Visibility Wind Speed Wind Dir Waves Ship Positions

Jsp Skirner

Last reported at 2018-Feb-06 10:46 UTC. Time now 2018-Feb-22 02:58 UTC.
Position N 35°49' E 014°34'.
Warning: this ship's position is 15 days out of date.

Length 139 m; draft 8.5 m.

Type: Ship (hazmat cat B). MMSI: 304979000.

Date/timePositionNaut miles runAvg speedWind from/ knotsBaromVisibWave heightAir tempDewpointWater temp
2018-Feb-06 10:46N 35°49' E 014°34'2 6.1
2018-Feb-06 10:25N 35°47' E 014°36'1 1.9
2018-Feb-06 09:56N 35°47' E 014°37'1 1.7
2018-Feb-06 09:30N 35°47' E 014°36'5 9.8
2018-Feb-06 09:00N 35°48' E 014°42'3 6.4
2018-Feb-06 08:30N 35°50' E 014°45'0 0.1
2018-Feb-06 07:19N 35°50' E 014°45'0 0.1
2018-Feb-06 06:51N 35°50' E 014°45'0 0.1
2018-Feb-06 06:22N 35°50' E 014°45'0 0.0
2018-Feb-06 04:38N 35°50' E 014°45'0 0.3
2018-Feb-06 04:29N 35°50' E 014°45'0 0.0
2018-Feb-06 03:51N 35°50' E 014°45'0 0.1
2018-Feb-06 03:29N 35°50' E 014°45'0 0.0
2018-Feb-06 02:58N 35°50' E 014°45'0 0.2
2018-Feb-06 02:26N 35°50' E 014°45'0 0.2
2018-Feb-06 01:56N 35°50' E 014°45'0 0.1
2018-Feb-06 01:11N 35°50' E 014°45'0 0.0
2018-Feb-06 00:47N 35°50' E 014°45'0 0.1
2018-Feb-06 00:14N 35°50' E 014°45'0 0.1
2018-Feb-05 23:58N 35°50' E 014°45'0 0.0
2018-Feb-05 23:27N 35°50' E 014°45'0 0.0
2018-Feb-05 23:00N 35°50' E 014°45'0 0.0
2018-Feb-05 22:22N 35°50' E 014°45'0 0.0
2018-Feb-05 20:46N 35°50' E 014°45'0 0.0
2018-Feb-05 19:34N 35°50' E 014°45'0 0.2
2018-Feb-05 19:16N 35°50' E 014°45'0 0.0
2018-Feb-05 18:41N 35°50' E 014°45'0 0.0
2018-Feb-05 18:15N 35°50' E 014°45'0 0.1
2018-Feb-05 17:53N 35°50' E 014°45'0 0.0
2018-Feb-05 17:11N 35°50' E 014°45'0 0.2
2018-Feb-05 16:53N 35°50' E 014°45'0 0.0
2018-Feb-05 16:05N 35°50' E 014°45'0 0.1
2018-Feb-05 15:53N 35°50' E 014°45'0 0.1
2018-Feb-05 15:20N 35°50' E 014°45'0 0.0
2018-Feb-05 14:54N 35°50' E 014°45'0 0.0
2018-Feb-05 14:28N 35°50' E 014°45'0 0.0
2018-Feb-05 13:59N 35°50' E 014°45'0 0.1
2018-Feb-05 13:23N 35°50' E 014°45'0 0.0
2018-Feb-05 12:57N 35°50' E 014°45'0 0.0
2018-Feb-05 12:30N 35°50' E 014°45'0 0.0
2018-Feb-05 11:58N 35°50' E 014°45'0 0.0
2018-Feb-05 11:24N 35°50' E 014°45'0 0.0
2018-Feb-05 10:58N 35°50' E 014°45'0 0.0
2018-Feb-05 10:30N 35°50' E 014°45'0 0.0
2018-Feb-05 09:25N 35°50' E 014°45'0 0.1
2018-Feb-05 08:22N 35°50' E 014°45'0 0.1
2018-Feb-05 07:53N 35°50' E 014°45'0 0.1
2018-Feb-05 06:58N 35°50' E 014°45'0 0.1
2018-Feb-05 06:30N 35°50' E 014°45'0 0.0
2018-Feb-05 03:18N 35°50' E 014°45'0 0.0
2018-Feb-05 02:59N 35°50' E 014°45'0 0.0
2018-Feb-04 01:53N 35°50' E 014°45'0 0.1
2018-Feb-04 01:24N 35°50' E 014°45'0 0.1
2018-Feb-04 00:55N 35°50' E 014°45'0 0.0
2018-Feb-04 00:18N 35°50' E 014°45'0 0.0
2018-Feb-03 13:09N 35°50' E 014°45'0 0.1
2018-Feb-03 12:57N 35°50' E 014°45'0 0.0
2018-Feb-03 11:47N 35°50' E 014°45'0 0.0
2018-Feb-03 11:26N 35°50' E 014°45'0 0.1
2018-Feb-03 10:51N 35°50' E 014°45'0 0.0
2018-Feb-03 10:28N 35°50' E 014°45'0 0.0
2018-Feb-03 09:59N 35°50' E 014°45'0 0.1
2018-Feb-03 09:30N 35°50' E 014°45'0 0.0
2018-Feb-03 08:58N 35°50' E 014°45'0 0.1
2018-Feb-03 08:29N 35°50' E 014°45'0 0.0
2018-Feb-03 07:59N 35°50' E 014°45'0 0.1
2018-Feb-03 06:30N 35°50' E 014°45'0 0.1
2018-Feb-03 06:00N 35°50' E 014°45'0 0.0
2018-Feb-03 05:28N 35°50' E 014°45'0 0.0
2018-Feb-03 04:53N 35°50' E 014°45'0 0.0
2018-Feb-03 03:55N 35°50' E 014°45'0 0.0
2018-Feb-03 03:29N 35°50' E 014°45'0 0.0
2018-Feb-03 01:54N 35°50' E 014°45'0 0.1
2018-Feb-03 01:25N 35°50' E 014°45'0 0.1
2018-Feb-03 01:00N 35°50' E 014°45'0 0.1
2018-Feb-03 00:28N 35°50' E 014°45'0 0.1
2018-Feb-02 23:58N 35°50' E 014°45'0 0.1
2018-Feb-02 23:25N 35°50' E 014°45'0 0.0
2018-Feb-02 22:58N 35°50' E 014°45'0 0.1
2018-Feb-02 22:28N 35°50' E 014°45'0 0.0
2018-Feb-02 21:55N 35°50' E 014°45'0 0.0
2018-Feb-02 21:29N 35°50' E 014°45'0 0.0
2018-Feb-02 20:57N 35°50' E 014°45'0 0.1
2018-Feb-02 20:27N 35°50' E 014°45'0 0.0
2018-Feb-02 19:56N 35°50' E 014°45'0 0.0
2018-Feb-02 19:00N 35°50' E 014°45'0 0.1
2018-Feb-02 18:27N 35°50' E 014°45'0 0.0
2018-Feb-02 17:56N 35°50' E 014°45'0 0.0
2018-Feb-02 17:25N 35°50' E 014°45'0 0.0
2018-Feb-02 16:55N 35°50' E 014°45'0 0.8
2018-Feb-02 16:30N 35°50' E 014°45'1711.9
2018-Feb-02 15:03N 35°45' E 014°24'813.5
2018-Feb-02 14:29N 35°46' E 014°15'714.0
2018-Feb-02 14:00N 35°50' E 014°08'713.9
2018-Feb-02 13:29N 35°54' E 014°00'713.7
2018-Feb-02 13:00N 35°57' E 013°53'613.0
2018-Feb-02 12:30N 36°00' E 013°46'  
Track history (hours):
 
Tides and Currents Weather Stations Pressure Air Temp Water Temp Dewpoint Dewpoint Depression Visibility Wind Speed Wind Dir Waves Ship Positions

Jsp Skirner

Last reported at 2018-Feb-06 10:46 UTC. Time now 2018-Feb-22 02:58 UTC.
Position N 35°49' E 014°34'.
Warning: this ship's position is 15 days out of date.

Length 139 m; draft 8.5 m.

Type: Ship (hazmat cat B). MMSI: 304979000.

Date/timePositionNaut miles runAvg speedWind from/ knotsBaromVisibWave heightAir tempDewpointWater temp
2018-Feb-06 10:46N 35°49' E 014°34'2 6.1
2018-Feb-06 10:25N 35°47' E 014°36'1 1.9
2018-Feb-06 09:56N 35°47' E 014°37'1 1.7
2018-Feb-06 09:30N 35°47' E 014°36'5 9.8
2018-Feb-06 09:00N 35°48' E 014°42'3 6.4
2018-Feb-06 08:30N 35°50' E 014°45'0 0.1
2018-Feb-06 07:19N 35°50' E 014°45'0 0.1
2018-Feb-06 06:51N 35°50' E 014°45'0 0.1
2018-Feb-06 06:22N 35°50' E 014°45'0 0.0
2018-Feb-06 04:38N 35°50' E 014°45'0 0.3
2018-Feb-06 04:29N 35°50' E 014°45'0 0.0
2018-Feb-06 03:51N 35°50' E 014°45'0 0.1
2018-Feb-06 03:29N 35°50' E 014°45'0 0.0
2018-Feb-06 02:58N 35°50' E 014°45'0 0.2
2018-Feb-06 02:26N 35°50' E 014°45'0 0.2
2018-Feb-06 01:56N 35°50' E 014°45'0 0.1
2018-Feb-06 01:11N 35°50' E 014°45'0 0.0
2018-Feb-06 00:47N 35°50' E 014°45'0 0.1
2018-Feb-06 00:14N 35°50' E 014°45'0 0.1
2018-Feb-05 23:58N 35°50' E 014°45'0 0.0
2018-Feb-05 23:27N 35°50' E 014°45'0 0.0
2018-Feb-05 23:00N 35°50' E 014°45'0 0.0
2018-Feb-05 22:22N 35°50' E 014°45'0 0.0
2018-Feb-05 20:46N 35°50' E 014°45'0 0.0
2018-Feb-05 19:34N 35°50' E 014°45'0 0.2
2018-Feb-05 19:16N 35°50' E 014°45'0 0.0
2018-Feb-05 18:41N 35°50' E 014°45'0 0.0
2018-Feb-05 18:15N 35°50' E 014°45'0 0.1
2018-Feb-05 17:53N 35°50' E 014°45'0 0.0
2018-Feb-05 17:11N 35°50' E 014°45'0 0.2
2018-Feb-05 16:53N 35°50' E 014°45'0 0.0
2018-Feb-05 16:05N 35°50' E 014°45'0 0.1
2018-Feb-05 15:53N 35°50' E 014°45'0 0.1
2018-Feb-05 15:20N 35°50' E 014°45'0 0.0
2018-Feb-05 14:54N 35°50' E 014°45'0 0.0
2018-Feb-05 14:28N 35°50' E 014°45'0 0.0
2018-Feb-05 13:59N 35°50' E 014°45'0 0.1
2018-Feb-05 13:23N 35°50' E 014°45'0 0.0
2018-Feb-05 12:57N 35°50' E 014°45'0 0.0
2018-Feb-05 12:30N 35°50' E 014°45'0 0.0
2018-Feb-05 11:58N 35°50' E 014°45'0 0.0
2018-Feb-05 11:24N 35°50' E 014°45'0 0.0
2018-Feb-05 10:58N 35°50' E 014°45'0 0.0
2018-Feb-05 10:30N 35°50' E 014°45'0 0.0
2018-Feb-05 09:25N 35°50' E 014°45'0 0.1
2018-Feb-05 08:22N 35°50' E 014°45'0 0.1
2018-Feb-05 07:53N 35°50' E 014°45'0 0.1
2018-Feb-05 06:58N 35°50' E 014°45'0 0.1
2018-Feb-05 06:30N 35°50' E 014°45'0 0.0
2018-Feb-05 03:18N 35°50' E 014°45'0 0.0
2018-Feb-05 02:59N 35°50' E 014°45'0 0.0
2018-Feb-04 01:53N 35°50' E 014°45'0 0.1
2018-Feb-04 01:24N 35°50' E 014°45'0 0.1
2018-Feb-04 00:55N 35°50' E 014°45'0 0.0
2018-Feb-04 00:18N 35°50' E 014°45'0 0.0
2018-Feb-03 13:09N 35°50' E 014°45'0 0.1
2018-Feb-03 12:57N 35°50' E 014°45'0 0.0
2018-Feb-03 11:47N 35°50' E 014°45'0 0.0
2018-Feb-03 11:26N 35°50' E 014°45'0 0.1
2018-Feb-03 10:51N 35°50' E 014°45'0 0.0
2018-Feb-03 10:28N 35°50' E 014°45'0 0.0
2018-Feb-03 09:59N 35°50' E 014°45'0 0.1
2018-Feb-03 09:30N 35°50' E 014°45'0 0.0
2018-Feb-03 08:58N 35°50' E 014°45'0 0.1
2018-Feb-03 08:29N 35°50' E 014°45'0 0.0
2018-Feb-03 07:59N 35°50' E 014°45'0 0.1
2018-Feb-03 06:30N 35°50' E 014°45'0 0.1
2018-Feb-03 06:00N 35°50' E 014°45'0 0.0
2018-Feb-03 05:28N 35°50' E 014°45'0 0.0
2018-Feb-03 04:53N 35°50' E 014°45'0 0.0
2018-Feb-03 03:55N 35°50' E 014°45'0 0.0
2018-Feb-03 03:29N 35°50' E 014°45'0 0.0
2018-Feb-03 01:54N 35°50' E 014°45'0 0.1
2018-Feb-03 01:25N 35°50' E 014°45'0 0.1
2018-Feb-03 01:00N 35°50' E 014°45'0 0.1
2018-Feb-03 00:28N 35°50' E 014°45'0 0.1
2018-Feb-02 23:58N 35°50' E 014°45'0 0.1
2018-Feb-02 23:25N 35°50' E 014°45'0 0.0
2018-Feb-02 22:58N 35°50' E 014°45'0 0.1
2018-Feb-02 22:28N 35°50' E 014°45'0 0.0
2018-Feb-02 21:55N 35°50' E 014°45'0 0.0
2018-Feb-02 21:29N 35°50' E 014°45'0 0.0
2018-Feb-02 20:57N 35°50' E 014°45'0 0.1
2018-Feb-02 20:27N 35°50' E 014°45'0 0.0
2018-Feb-02 19:56N 35°50' E 014°45'0 0.0
2018-Feb-02 19:00N 35°50' E 014°45'0 0.1
2018-Feb-02 18:27N 35°50' E 014°45'0 0.0
2018-Feb-02 17:56N 35°50' E 014°45'0 0.0
2018-Feb-02 17:25N 35°50' E 014°45'0 0.0
2018-Feb-02 16:55N 35°50' E 014°45'0 0.8
2018-Feb-02 16:30N 35°50' E 014°45'1711.9
2018-Feb-02 15:03N 35°45' E 014°24'813.5
2018-Feb-02 14:29N 35°46' E 014°15'714.0
2018-Feb-02 14:00N 35°50' E 014°08'713.9
2018-Feb-02 13:29N 35°54' E 014°00'713.7
2018-Feb-02 13:00N 35°57' E 013°53'613.0
2018-Feb-02 12:30N 36°00' E 013°46'  

Dump ship's entire track history